createdAt,value
2019-03-21T00:01:14.278Z,4.90
2019-03-21T00:03:19.855Z,4.90
2019-03-21T00:05:26.890Z,4.80
2019-03-21T00:07:32.541Z,4.80
2019-03-21T00:09:38.654Z,4.90
2019-03-21T00:12:21.290Z,4.90
2019-03-21T00:14:40.155Z,4.90
2019-03-21T00:16:45.764Z,5.10
2019-03-21T00:18:51.387Z,5.00
2019-03-21T00:20:56.887Z,4.90
2019-03-21T00:23:02.929Z,4.90
2019-03-21T00:25:09.520Z,4.80
2019-03-21T00:27:14.988Z,4.90
2019-03-21T00:29:20.787Z,4.90
2019-03-21T00:31:26.521Z,4.90
2019-03-21T00:33:32.439Z,4.80
2019-03-21T00:35:38.696Z,4.80
2019-03-21T00:37:44.519Z,4.80
2019-03-21T00:39:50.406Z,4.70
2019-03-21T00:41:55.997Z,4.70
2019-03-21T00:44:01.898Z,4.70
2019-03-21T00:46:07.650Z,4.70
2019-03-21T00:48:15.054Z,4.60
2019-03-21T00:50:21.801Z,4.60
2019-03-21T00:52:27.488Z,4.60
2019-03-21T00:54:33.223Z,4.60
2019-03-21T00:56:38.792Z,4.60
2019-03-21T00:58:44.424Z,4.60
2019-03-21T01:00:52.430Z,4.60
2019-03-21T01:02:58.190Z,4.50
2019-03-21T01:05:03.930Z,4.50
2019-03-21T01:07:09.703Z,4.50
2019-03-21T01:09:15.637Z,4.40
2019-03-21T01:11:21.448Z,4.40
2019-03-21T01:13:29.746Z,4.40
2019-03-21T01:15:35.416Z,4.40
2019-03-21T01:17:40.864Z,4.40
2019-03-21T01:19:46.746Z,4.40
2019-03-21T01:21:52.554Z,4.30
2019-03-21T01:23:58.211Z,4.30
2019-03-21T01:26:04.083Z,4.30
2019-03-21T01:28:09.770Z,4.30
2019-03-21T01:30:16.467Z,4.20
2019-03-21T01:32:22.159Z,4.20
2019-03-21T01:34:27.802Z,4.20
2019-03-21T01:36:33.487Z,4.20
2019-03-21T01:38:39.151Z,4.20
2019-03-21T01:40:45.363Z,4.10
2019-03-21T01:42:51.154Z,4.10
2019-03-21T01:44:57.011Z,4.10
2019-03-21T01:47:02.508Z,4.10
2019-03-21T01:49:08.100Z,4.10
2019-03-21T01:51:13.810Z,4.10
2019-03-21T01:53:19.867Z,4.10
2019-03-21T01:55:25.587Z,4.10
2019-03-21T01:57:31.263Z,4.00
2019-03-21T01:59:36.975Z,4.00
2019-03-21T02:01:42.889Z,4.00
2019-03-21T02:03:48.543Z,4.00
2019-03-21T02:05:54.039Z,4.00
2019-03-21T02:07:59.701Z,4.00
2019-03-21T02:10:05.607Z,4.00
2019-03-21T02:12:12.093Z,4.00
2019-03-21T02:14:17.663Z,4.00
2019-03-21T02:16:23.248Z,4.00
2019-03-21T02:18:28.751Z,4.00
2019-03-21T02:20:34.551Z,3.90
2019-03-21T02:22:40.178Z,3.90
2019-03-21T02:24:45.584Z,3.90
2019-03-21T02:26:51.189Z,4.10
2019-03-21T02:28:56.832Z,4.10
2019-03-21T02:31:02.469Z,4.10
2019-03-21T02:33:29.706Z,4.00
2019-03-21T02:35:35.407Z,4.00
2019-03-21T02:37:40.916Z,3.90
2019-03-21T02:39:58.537Z,3.80
2019-03-21T02:41:53.930Z,3.80
2019-03-21T02:43:59.503Z,3.80
2019-03-21T02:46:05.409Z,3.80
2019-03-21T02:48:10.979Z,3.80
2019-03-21T02:50:19.869Z,3.70
2019-03-21T02:52:25.426Z,3.70
2019-03-21T02:54:31.184Z,3.60
2019-03-21T02:56:36.745Z,3.50
2019-03-21T02:58:42.363Z,3.50
2019-03-21T03:00:47.923Z,3.50
2019-03-21T03:02:55.467Z,3.50
2019-03-21T03:05:00.969Z,3.50
2019-03-21T03:07:07.359Z,3.50
2019-03-21T03:09:13.033Z,3.50
2019-03-21T03:11:18.698Z,3.50
2019-03-21T03:13:24.256Z,3.50
2019-03-21T03:15:31.179Z,3.50
2019-03-21T03:17:40.608Z,3.50
2019-03-21T03:19:46.210Z,3.40
2019-03-21T03:21:51.965Z,3.50
2019-03-21T03:23:57.604Z,3.50
2019-03-21T03:26:03.502Z,3.40
2019-03-21T03:28:18.466Z,3.40
2019-03-21T03:30:24.886Z,3.40
2019-03-21T03:32:30.628Z,3.50
2019-03-21T03:34:35.991Z,3.60
2019-03-21T03:36:41.620Z,3.70
2019-03-21T03:38:47.309Z,3.60
2019-03-21T03:40:55.511Z,3.50
2019-03-21T03:43:00.954Z,3.50
2019-03-21T03:45:07.824Z,3.50
2019-03-21T03:47:13.441Z,3.60
2019-03-21T03:49:18.910Z,3.60
2019-03-21T03:51:24.459Z,3.50
2019-03-21T03:53:30.159Z,3.40
2019-03-21T03:55:35.630Z,3.30
2019-03-21T03:57:41.362Z,3.30
2019-03-21T03:59:47.060Z,3.30
2019-03-21T04:01:52.533Z,3.30
2019-03-21T04:03:58.111Z,3.30
2019-03-21T04:06:03.944Z,3.30
2019-03-21T04:08:09.826Z,3.20
2019-03-21T04:10:18.510Z,3.20
2019-03-21T04:12:24.532Z,3.20
2019-03-21T04:14:31.794Z,3.20
2019-03-21T04:16:37.260Z,3.20
2019-03-21T04:18:42.814Z,3.20
2019-03-21T04:20:49.230Z,3.10
2019-03-21T04:22:54.811Z,3.20
2019-03-21T04:25:01.160Z,3.10
2019-03-21T04:27:06.943Z,3.10
2019-03-21T04:29:12.453Z,3.10
2019-03-21T04:31:18.058Z,3.20
2019-03-21T04:33:23.756Z,3.20
2019-03-21T04:35:29.574Z,3.20
2019-03-21T04:37:35.334Z,3.30
2019-03-21T04:39:40.900Z,3.30
2019-03-21T04:41:46.442Z,3.30
2019-03-21T04:43:51.998Z,3.20
2019-03-21T04:46:03.438Z,3.20
2019-03-21T04:48:08.256Z,3.20
2019-03-21T04:50:16.038Z,3.20
2019-03-21T04:52:21.681Z,3.10
2019-03-21T04:54:27.529Z,3.00
2019-03-21T04:56:33.134Z,3.00
2019-03-21T04:58:38.859Z,2.90
2019-03-21T05:00:44.553Z,2.90
2019-03-21T05:02:50.297Z,3.00
2019-03-21T05:04:55.746Z,3.10
2019-03-21T05:07:01.159Z,3.10
2019-03-21T05:09:10.025Z,3.10
2019-03-21T05:11:15.734Z,3.10
2019-03-21T05:13:21.505Z,3.00
2019-03-21T05:15:32.678Z,3.00
2019-03-21T05:17:38.307Z,3.00
2019-03-21T05:19:44.057Z,3.00
2019-03-21T05:21:49.638Z,3.00
2019-03-21T05:23:55.305Z,3.00
2019-03-21T05:26:01.090Z,3.00
2019-03-21T05:28:06.762Z,3.00
2019-03-21T05:30:15.678Z,3.00
2019-03-21T05:32:21.140Z,2.90
2019-03-21T05:34:26.668Z,2.90
2019-03-21T05:36:36.254Z,3.00
2019-03-21T05:38:41.830Z,3.00
2019-03-21T05:40:47.378Z,2.90
2019-03-21T05:42:59.969Z,2.90
2019-03-21T05:45:06.147Z,2.90
2019-03-21T05:47:13.169Z,3.00
2019-03-21T05:49:18.772Z,3.00
2019-03-21T05:51:24.675Z,3.10
2019-03-21T05:53:30.149Z,3.20
2019-03-21T05:55:35.778Z,3.20
2019-03-21T05:57:41.380Z,3.20
2019-03-21T05:59:46.909Z,3.20
2019-03-21T06:01:52.377Z,3.30
2019-03-21T06:03:57.986Z,3.40
2019-03-21T06:06:10.834Z,3.50
2019-03-21T06:08:20.207Z,3.50
2019-03-21T06:10:26.166Z,3.70
2019-03-21T06:12:31.413Z,3.90
2019-03-21T06:14:38.161Z,3.90
2019-03-21T06:16:43.899Z,4.00
2019-03-21T06:18:57.768Z,4.10
2019-03-21T06:21:22.988Z,4.20
2019-03-21T06:23:57.627Z,4.30
2019-03-21T06:26:41.356Z,4.40
2019-03-21T06:28:47.343Z,4.60
2019-03-21T06:30:53.322Z,4.70
2019-03-21T06:32:59.003Z,4.80
2019-03-21T06:35:04.688Z,5.00
2019-03-21T06:37:10.204Z,5.10
2019-03-21T06:39:15.898Z,5.20
2019-03-21T06:41:22.425Z,5.40
2019-03-21T06:43:28.051Z,5.50
2019-03-21T06:45:34.110Z,5.90
2019-03-21T06:47:39.981Z,6.30
2019-03-21T06:49:46.698Z,7.40
2019-03-21T06:51:52.591Z,9.10
2019-03-21T06:53:58.217Z,10.60
2019-03-21T06:56:03.932Z,11.90
2019-03-21T06:58:09.303Z,12.70
2019-03-21T07:00:14.879Z,13.60
2019-03-21T07:02:20.638Z,14.20
2019-03-21T07:04:26.283Z,13.80
2019-03-21T07:06:32.705Z,14.00
2019-03-21T07:08:38.270Z,14.00
2019-03-21T07:10:44.214Z,13.90
2019-03-21T07:12:50.056Z,14.40
2019-03-21T07:14:55.428Z,15.40
2019-03-21T07:17:01.058Z,16.50
2019-03-21T07:19:06.723Z,16.80
2019-03-21T07:21:12.256Z,16.90
2019-03-21T07:23:17.934Z,18.20
2019-03-21T07:25:23.461Z,18.60
2019-03-21T07:27:29.073Z,19.10
2019-03-21T07:29:34.860Z,19.40
2019-03-21T07:31:40.493Z,18.40
2019-03-21T07:33:46.071Z,19.30
2019-03-21T07:35:51.680Z,20.20
2019-03-21T07:37:57.528Z,20.20
2019-03-21T07:40:03.172Z,20.80
2019-03-21T07:42:09.045Z,21.60
2019-03-21T07:44:14.677Z,21.40
2019-03-21T07:46:20.385Z,21.90
2019-03-21T07:48:26.179Z,22.40
2019-03-21T07:50:32.061Z,23.10
2019-03-21T07:52:37.856Z,22.40
2019-03-21T07:54:43.964Z,22.80
2019-03-21T07:56:49.532Z,21.30
2019-03-21T07:58:57.603Z,22.20
2019-03-21T08:01:02.275Z,23.10
2019-03-21T08:03:07.829Z,24.00
2019-03-21T08:05:13.444Z,24.60
2019-03-21T08:07:19.037Z,25.20
2019-03-21T08:09:24.684Z,25.50
2019-03-21T08:11:30.227Z,23.90
2019-03-21T08:13:35.934Z,23.80
2019-03-21T08:15:41.343Z,24.10
2019-03-21T08:17:46.880Z,24.60
2019-03-21T08:19:52.789Z,24.90
2019-03-21T08:21:58.314Z,23.40
2019-03-21T08:24:03.999Z,21.50
2019-03-21T08:26:09.633Z,19.80
2019-03-21T08:28:15.313Z,19.40
2019-03-21T08:30:33.054Z,19.10
2019-03-21T08:32:39.220Z,18.50
2019-03-21T08:34:44.842Z,18.60
2019-03-21T08:36:50.450Z,18.30
2019-03-21T08:38:56.096Z,18.10
2019-03-21T08:41:02.163Z,18.20
2019-03-21T08:43:07.885Z,18.50
2019-03-21T08:45:13.549Z,18.20
2019-03-21T08:47:19.407Z,18.00
2019-03-21T08:49:25.387Z,18.30
2019-03-21T08:51:31.079Z,19.40
2019-03-21T08:53:37.955Z,19.40
2019-03-21T08:55:43.446Z,19.80
2019-03-21T08:57:48.991Z,20.10
2019-03-21T08:59:54.821Z,20.60
2019-03-21T09:02:00.933Z,20.90
2019-03-21T09:04:07.121Z,21.10
2019-03-21T09:06:12.847Z,21.00
2019-03-21T09:08:18.432Z,20.90
2019-03-21T09:10:24.375Z,21.60
2019-03-21T09:12:29.902Z,21.40
2019-03-21T09:14:35.560Z,21.60
2019-03-21T09:16:41.214Z,21.00
2019-03-21T09:18:46.901Z,20.90
2019-03-21T09:20:52.928Z,20.90
2019-03-21T09:22:58.607Z,20.20
2019-03-21T09:25:04.904Z,20.30
2019-03-21T09:27:10.578Z,21.30
2019-03-21T09:29:16.315Z,21.80
2019-03-21T09:31:22.349Z,22.10
2019-03-21T09:33:28.369Z,22.00
2019-03-21T09:35:33.988Z,22.20
2019-03-21T09:37:39.659Z,22.10
2019-03-21T09:39:45.600Z,23.20
2019-03-21T09:41:51.219Z,23.10
2019-03-21T09:43:57.210Z,23.20
2019-03-21T09:46:02.901Z,23.80
2019-03-21T09:48:08.707Z,23.40
2019-03-21T09:50:19.371Z,23.00
2019-03-21T09:52:24.971Z,22.60
2019-03-21T09:54:30.766Z,22.30
2019-03-21T09:56:36.496Z,22.70
2019-03-21T09:58:42.106Z,22.70
2019-03-21T10:00:47.545Z,22.40
2019-03-21T10:02:53.107Z,22.30
2019-03-21T10:04:58.709Z,22.70
2019-03-21T10:07:04.200Z,22.80
2019-03-21T10:09:09.838Z,22.50
2019-03-21T10:11:15.586Z,22.70
2019-03-21T10:13:21.285Z,23.00
2019-03-21T10:15:26.925Z,23.50
2019-03-21T10:17:32.741Z,22.80
2019-03-21T10:19:38.391Z,22.80
2019-03-21T10:21:44.323Z,23.00
2019-03-21T10:23:49.856Z,22.90
2019-03-21T10:25:55.815Z,22.40
2019-03-21T10:28:02.429Z,22.00
2019-03-21T10:30:08.196Z,22.50
2019-03-21T10:32:14.672Z,22.80
2019-03-21T10:34:21.904Z,22.30
2019-03-21T10:36:27.636Z,23.40
2019-03-21T10:38:33.294Z,23.80
2019-03-21T10:40:39.252Z,24.20
2019-03-21T10:42:45.211Z,24.20
2019-03-21T10:44:51.433Z,24.70
2019-03-21T10:46:57.121Z,25.40
2019-03-21T10:49:02.737Z,25.30
2019-03-21T10:51:08.300Z,24.80
2019-03-21T10:53:14.151Z,24.60
2019-03-21T10:55:19.648Z,24.40
2019-03-21T10:57:25.393Z,24.10
2019-03-21T10:59:31.331Z,23.60
2019-03-21T11:01:37.392Z,23.70
2019-03-21T11:03:43.244Z,23.20
2019-03-21T11:05:48.951Z,23.80
2019-03-21T11:07:56.233Z,24.10
2019-03-21T11:10:02.052Z,24.50
2019-03-21T11:12:07.549Z,24.50
2019-03-21T11:14:13.503Z,24.90
2019-03-21T11:16:19.203Z,25.00
2019-03-21T11:18:35.540Z,25.10
2019-03-21T11:20:36.197Z,24.70
2019-03-21T11:22:41.660Z,24.30
2019-03-21T11:24:47.868Z,24.40
2019-03-21T11:26:53.408Z,24.60
2019-03-21T11:28:58.933Z,25.00
2019-03-21T11:31:04.590Z,24.40
2019-03-21T11:33:10.314Z,24.60
2019-03-21T11:35:16.066Z,24.70
2019-03-21T11:37:21.806Z,24.90
2019-03-21T11:39:27.536Z,24.10
2019-03-21T11:41:34.088Z,24.10
2019-03-21T11:43:39.858Z,24.10
2019-03-21T11:45:47.652Z,23.60
2019-03-21T11:47:52.838Z,24.00
2019-03-21T11:49:58.443Z,24.20
2019-03-21T11:52:04.078Z,23.60
2019-03-21T11:54:09.755Z,23.90
2019-03-21T11:56:15.447Z,23.80
2019-03-21T11:58:20.938Z,23.30
2019-03-21T12:00:26.562Z,23.50
2019-03-21T12:02:32.039Z,23.50
2019-03-21T12:04:37.974Z,23.60
2019-03-21T12:06:45.164Z,23.80
2019-03-21T12:08:50.787Z,24.10
2019-03-21T12:10:56.431Z,23.90
2019-03-21T12:13:02.418Z,23.70
2019-03-21T12:15:07.940Z,23.60
2019-03-21T12:17:13.597Z,23.60
2019-03-21T12:19:19.318Z,23.30
2019-03-21T12:21:24.998Z,23.80
2019-03-21T12:23:30.621Z,24.30
2019-03-21T12:25:36.533Z,24.00
2019-03-21T12:27:42.169Z,24.10
2019-03-21T12:29:47.816Z,24.20
2019-03-21T12:31:53.740Z,24.10
2019-03-21T12:33:59.490Z,23.80
2019-03-21T12:36:04.996Z,23.40
2019-03-21T12:38:10.909Z,23.20
2019-03-21T12:40:16.590Z,23.10
2019-03-21T12:42:22.186Z,22.50
2019-03-21T12:44:27.863Z,21.60
2019-03-21T12:46:33.731Z,21.40
2019-03-21T12:48:39.345Z,21.30
2019-03-21T12:50:45.001Z,20.90
2019-03-21T12:52:50.474Z,20.70
2019-03-21T12:54:55.967Z,20.80
2019-03-21T12:57:02.240Z,21.00
2019-03-21T12:59:07.849Z,20.70
2019-03-21T13:01:13.565Z,20.60
2019-03-21T13:03:19.119Z,20.50
2019-03-21T13:05:29.448Z,20.10
2019-03-21T13:07:35.409Z,19.90
2019-03-21T13:09:41.301Z,20.10
2019-03-21T13:11:47.353Z,20.20
2019-03-21T13:13:53.161Z,20.10
2019-03-21T13:15:59.775Z,20.20
2019-03-21T13:18:05.921Z,19.80
2019-03-21T13:20:11.584Z,19.90
2019-03-21T13:22:20.333Z,20.00
2019-03-21T13:24:25.930Z,19.90
2019-03-21T13:26:32.842Z,19.70
2019-03-21T13:28:38.388Z,19.80
2019-03-21T13:30:44.198Z,19.70
2019-03-21T13:32:50.655Z,19.30
2019-03-21T13:34:56.657Z,19.60
2019-03-21T13:37:02.382Z,19.20
2019-03-21T13:39:09.294Z,19.30
2019-03-21T13:41:15.758Z,19.40
2019-03-21T13:43:21.297Z,19.50
2019-03-21T13:45:27.274Z,19.30
2019-03-21T13:47:32.823Z,19.10
2019-03-21T13:49:38.500Z,19.20
2019-03-21T13:51:44.126Z,19.50
2019-03-21T13:53:49.587Z,19.60
2019-03-21T13:55:55.135Z,19.60
2019-03-21T13:58:00.749Z,19.00
2019-03-21T14:00:06.790Z,18.50
2019-03-21T14:02:12.409Z,18.50
2019-03-21T14:04:17.993Z,18.60
2019-03-21T14:06:23.358Z,18.80
2019-03-21T14:08:29.173Z,18.90
2019-03-21T14:10:34.844Z,19.00
2019-03-21T14:12:40.988Z,19.10
2019-03-21T14:14:46.543Z,19.20
2019-03-21T14:16:53.259Z,19.10
2019-03-21T14:18:58.831Z,19.10
2019-03-21T14:21:04.538Z,19.10
2019-03-21T14:23:17.128Z,18.90
2019-03-21T14:25:17.895Z,18.80
2019-03-21T14:27:25.960Z,18.90
2019-03-21T14:29:32.649Z,18.80
2019-03-21T14:31:39.791Z,18.60
2019-03-21T14:33:46.533Z,18.60
2019-03-21T14:35:52.425Z,18.40
2019-03-21T14:37:58.184Z,18.40
2019-03-21T14:40:06.325Z,18.50
2019-03-21T14:42:12.072Z,18.40
2019-03-21T14:44:18.553Z,18.20
2019-03-21T14:46:24.163Z,18.40
2019-03-21T14:48:29.634Z,18.40
2019-03-21T14:50:36.296Z,18.10
2019-03-21T14:52:41.842Z,18.40
2019-03-21T14:54:48.054Z,18.20
2019-03-21T14:56:53.629Z,18.10
2019-03-21T14:58:59.649Z,18.10
2019-03-21T15:01:05.291Z,18.00
2019-03-21T15:03:12.020Z,17.90
2019-03-21T15:05:18.414Z,17.80
2019-03-21T15:07:23.868Z,17.80
2019-03-21T15:09:30.317Z,17.90
2019-03-21T15:11:36.119Z,18.10
2019-03-21T15:13:42.305Z,18.00
2019-03-21T15:15:47.972Z,17.90
2019-03-21T15:17:54.739Z,17.80
2019-03-21T15:20:01.128Z,17.90
2019-03-21T15:22:07.942Z,17.80
2019-03-21T15:24:13.618Z,17.70
2019-03-21T15:26:19.424Z,17.60
2019-03-21T15:28:24.829Z,17.50
2019-03-21T15:30:30.583Z,17.40
2019-03-21T15:32:36.450Z,17.50
2019-03-21T15:34:42.598Z,17.50
2019-03-21T15:36:51.819Z,17.30
2019-03-21T15:38:57.458Z,17.30
2019-03-21T15:41:03.144Z,17.30
2019-03-21T15:43:08.762Z,17.20
2019-03-21T15:45:22.167Z,17.10
2019-03-21T15:47:22.433Z,17.00
2019-03-21T15:49:28.110Z,16.90
2019-03-21T15:51:33.674Z,16.90
2019-03-21T15:53:39.312Z,17.00
2019-03-21T15:55:45.429Z,16.80
2019-03-21T15:57:50.942Z,16.80
2019-03-21T15:59:57.681Z,16.80
2019-03-21T16:02:03.476Z,16.80
2019-03-21T16:04:09.369Z,16.70
2019-03-21T16:06:15.200Z,16.70
2019-03-21T16:08:21.140Z,16.70
2019-03-21T16:10:26.818Z,16.60
2019-03-21T16:12:32.782Z,16.50
2019-03-21T16:14:38.738Z,16.40
2019-03-21T16:16:45.816Z,16.40
2019-03-21T16:18:51.491Z,16.30
2019-03-21T16:20:57.104Z,16.20
2019-03-21T16:23:03.065Z,16.20
2019-03-21T16:25:09.500Z,16.20
2019-03-21T16:27:15.186Z,16.10
2019-03-21T16:29:20.643Z,16.10
2019-03-21T16:31:26.603Z,16.10
2019-03-21T16:33:32.314Z,16.00
2019-03-21T16:35:38.229Z,15.90
2019-03-21T16:37:43.916Z,15.90
2019-03-21T16:39:50.117Z,15.90
2019-03-21T16:41:55.726Z,15.80
2019-03-21T16:44:01.436Z,15.80
2019-03-21T16:46:10.327Z,15.70
2019-03-21T16:48:16.213Z,15.70
2019-03-21T16:50:21.880Z,15.70
2019-03-21T16:52:28.040Z,15.60
2019-03-21T16:54:33.733Z,15.50
2019-03-21T16:56:40.842Z,15.50
2019-03-21T16:58:46.457Z,15.40
2019-03-21T17:00:52.456Z,15.40
2019-03-21T17:02:58.073Z,15.30
2019-03-21T17:05:03.620Z,15.20
2019-03-21T17:07:09.769Z,15.20
2019-03-21T17:09:15.243Z,15.20
2019-03-21T17:11:21.071Z,15.10
2019-03-21T17:13:27.325Z,15.00
2019-03-21T17:15:33.298Z,15.00
2019-03-21T17:17:38.961Z,15.00
2019-03-21T17:19:44.815Z,14.90
2019-03-21T17:21:50.446Z,14.80
2019-03-21T17:23:56.197Z,14.60
2019-03-21T17:26:01.704Z,14.50
2019-03-21T17:28:07.301Z,14.50
2019-03-21T17:30:13.011Z,14.40
2019-03-21T17:32:18.525Z,14.20
2019-03-21T17:34:24.544Z,14.20
2019-03-21T17:36:30.138Z,14.10
2019-03-21T17:38:36.034Z,14.00
2019-03-21T17:40:42.446Z,13.90
2019-03-21T17:42:48.416Z,13.90
2019-03-21T17:44:53.872Z,13.80
2019-03-21T17:46:59.557Z,13.60
2019-03-21T17:49:05.368Z,13.40
2019-03-21T17:51:11.207Z,13.20
2019-03-21T17:53:16.862Z,13.00
2019-03-21T17:55:22.531Z,12.80
2019-03-21T17:57:34.421Z,12.70
2019-03-21T17:59:35.831Z,12.70
2019-03-21T18:01:41.501Z,12.60
2019-03-21T18:03:47.168Z,12.60
2019-03-21T18:12:32.305Z,12.00
2019-03-21T18:14:38.971Z,11.90
2019-03-21T18:16:44.628Z,11.80
2019-03-21T18:18:50.160Z,11.70
2019-03-21T18:20:55.726Z,11.60
2019-03-21T18:23:01.389Z,11.50
2019-03-21T18:25:07.189Z,11.40
2019-03-21T18:27:12.806Z,11.40
2019-03-21T18:29:18.870Z,11.30
2019-03-21T18:31:24.244Z,11.30
2019-03-21T18:33:30.002Z,11.20
2019-03-21T18:35:35.824Z,11.10
2019-03-21T18:37:41.430Z,11.00
2019-03-21T18:39:47.280Z,11.00
2019-03-21T18:41:52.620Z,10.90
2019-03-21T18:43:58.660Z,10.90
2019-03-21T18:46:04.756Z,10.80
2019-03-21T18:48:10.165Z,10.70
2019-03-21T18:50:16.252Z,10.60
2019-03-21T18:52:21.885Z,10.60
2019-03-21T18:54:27.727Z,10.60
2019-03-21T18:56:33.304Z,10.90
2019-03-21T18:58:39.276Z,11.10
2019-03-21T19:00:44.930Z,11.20
2019-03-21T19:02:50.555Z,11.30
2019-03-21T19:04:56.079Z,11.30
2019-03-21T19:07:03.249Z,11.20
2019-03-21T19:09:09.836Z,11.20
2019-03-21T19:11:15.507Z,11.10
2019-03-21T19:13:21.240Z,11.10
2019-03-21T19:15:26.781Z,11.10
2019-03-21T19:17:32.263Z,11.10
2019-03-21T19:19:39.831Z,11.10
2019-03-21T19:21:45.574Z,11.10
2019-03-21T19:23:51.388Z,11.00
2019-03-21T19:25:57.206Z,11.00
2019-03-21T19:28:03.263Z,11.00
2019-03-21T19:30:10.517Z,10.90
2019-03-21T19:32:16.061Z,10.90
2019-03-21T19:34:21.797Z,10.80
2019-03-21T19:36:28.788Z,10.70
2019-03-21T19:38:34.775Z,10.60
2019-03-21T19:40:40.949Z,10.60
2019-03-21T19:42:46.598Z,10.50
2019-03-21T19:44:53.163Z,10.50
2019-03-21T19:47:01.361Z,10.40
2019-03-21T19:49:07.953Z,10.20
2019-03-21T19:51:14.265Z,10.20
2019-03-21T19:53:19.860Z,10.20
2019-03-21T19:55:30.788Z,10.10
2019-03-21T19:57:33.121Z,10.20
2019-03-21T19:59:40.700Z,10.20
2019-03-21T20:01:45.918Z,10.30
2019-03-21T20:03:51.511Z,10.20
2019-03-21T20:06:00.478Z,10.10
2019-03-21T20:08:04.808Z,10.00
2019-03-21T20:10:10.796Z,10.00
2019-03-21T20:12:16.715Z,10.10
2019-03-21T20:14:22.781Z,10.10
2019-03-21T20:16:28.515Z,10.10
2019-03-21T20:18:33.896Z,10.10
2019-03-21T20:20:39.952Z,10.00
2019-03-21T20:22:45.723Z,9.90
2019-03-21T20:24:51.585Z,9.80
2019-03-21T20:26:57.479Z,9.70
2019-03-21T20:29:03.045Z,9.60
2019-03-21T20:31:09.147Z,9.60
2019-03-21T20:33:14.743Z,9.60
2019-03-21T20:35:21.334Z,9.50
2019-03-21T20:37:27.691Z,9.50
2019-03-21T20:39:33.262Z,9.50
2019-03-21T20:41:38.998Z,9.50
2019-03-21T20:43:44.916Z,9.40
2019-03-21T20:45:50.491Z,9.30
2019-03-21T20:47:55.999Z,9.20
2019-03-21T20:50:01.846Z,9.20
2019-03-21T20:52:07.957Z,9.20
2019-03-21T20:54:13.648Z,9.10
2019-03-21T20:56:19.366Z,9.10
2019-03-21T20:58:25.289Z,9.00
2019-03-21T21:00:31.212Z,9.00
2019-03-21T21:02:36.705Z,8.90
2019-03-21T21:04:42.510Z,8.90
2019-03-21T21:06:48.229Z,8.80
2019-03-21T21:08:54.243Z,8.80
2019-03-21T21:11:01.153Z,8.80
2019-03-21T21:13:06.712Z,8.70
2019-03-21T21:15:12.605Z,8.70
2019-03-21T21:17:18.668Z,8.70
2019-03-21T21:19:24.557Z,8.60
2019-03-21T21:21:30.489Z,8.60
2019-03-21T21:23:36.390Z,8.60
2019-03-21T21:25:42.658Z,8.60
2019-03-21T21:27:49.806Z,8.60
2019-03-21T21:29:55.773Z,8.60
2019-03-21T21:32:01.913Z,8.50
2019-03-21T21:34:07.589Z,8.50
2019-03-21T21:36:21.666Z,8.40
2019-03-21T21:38:20.922Z,8.30
2019-03-21T21:40:26.683Z,8.30
2019-03-21T21:42:32.604Z,8.30
2019-03-21T21:44:38.267Z,8.20
2019-03-21T21:46:43.783Z,8.20
2019-03-21T21:48:49.537Z,8.30
2019-03-21T21:50:56.507Z,8.20
2019-03-21T21:53:02.250Z,8.20
2019-03-21T21:55:09.106Z,8.20
2019-03-21T21:57:14.684Z,8.10
2019-03-21T21:59:20.326Z,8.10
2019-03-21T22:01:26.081Z,8.10
2019-03-21T22:03:31.819Z,8.00
2019-03-21T22:05:37.321Z,8.10
2019-03-21T22:07:43.340Z,8.00
2019-03-21T22:09:48.852Z,8.10
2019-03-21T22:11:54.391Z,8.10
2019-03-21T22:14:00.309Z,8.10
2019-03-21T22:16:06.040Z,8.10
2019-03-21T22:18:11.992Z,8.10
2019-03-21T22:20:18.008Z,8.10
2019-03-21T22:22:23.587Z,8.10
2019-03-21T22:24:30.248Z,8.10
2019-03-21T22:26:36.059Z,8.10
2019-03-21T22:28:41.855Z,8.10
2019-03-21T22:30:47.563Z,8.00
2019-03-21T22:32:55.949Z,8.10
2019-03-21T22:35:01.857Z,8.20
2019-03-21T22:37:07.746Z,8.20
2019-03-21T22:39:13.635Z,8.20
2019-03-21T22:41:19.496Z,8.20
2019-03-21T22:43:25.347Z,8.20
2019-03-21T22:45:30.847Z,8.20
2019-03-21T22:47:37.460Z,8.20
2019-03-21T22:49:43.079Z,8.20
2019-03-21T22:51:48.740Z,8.10
2019-03-21T22:53:54.806Z,8.10
2019-03-21T22:56:00.891Z,8.00
2019-03-21T22:58:06.482Z,8.00
2019-03-21T23:00:14.709Z,7.90
2019-03-21T23:02:20.310Z,8.00
2019-03-21T23:04:25.991Z,7.90
2019-03-21T23:06:31.594Z,7.90
2019-03-21T23:08:37.452Z,7.80
2019-03-21T23:10:45.146Z,7.80
2019-03-21T23:12:50.376Z,7.80
2019-03-21T23:14:55.922Z,7.90
2019-03-21T23:17:01.517Z,7.90
2019-03-21T23:19:07.201Z,7.80
2019-03-21T23:21:12.877Z,7.80
2019-03-21T23:23:18.906Z,7.80
2019-03-21T23:25:24.691Z,7.90
2019-03-21T23:27:30.143Z,7.90
2019-03-21T23:29:35.769Z,7.90
2019-03-21T23:31:41.523Z,7.90
2019-03-21T23:33:47.424Z,7.90
2019-03-21T23:35:52.972Z,7.90
2019-03-21T23:37:58.479Z,7.80
2019-03-21T23:40:04.126Z,7.90
2019-03-21T23:42:09.566Z,7.90
2019-03-21T23:44:15.759Z,7.80
2019-03-21T23:46:21.255Z,7.90
2019-03-21T23:48:26.779Z,7.80
2019-03-21T23:50:32.555Z,7.80
2019-03-21T23:52:38.443Z,7.80
2019-03-21T23:54:44.460Z,7.80
2019-03-21T23:56:50.189Z,7.80
2019-03-21T23:58:55.900Z,7.80
